Selma, Virginia
Current Conditions -  °F | °C
As of 11:55 PM on Monday 22 Dec 2014 (Local Time) from KHSP Reporting Station
Light Rain Light Rain  
Wind Chill: 29°   Ceiling: 100
Heat Index: 35°   Visibility: 0mi
Dew Point: 35°   Wind: 7mph
Humidity: 100%   Direction: 130°SE
Pressure: 29.96"   Gusts: NA
Location:  37.8°N, 79.84°W
Report Text: KHSP 230455Z AUTO 13006KT M1/4SM -RA OVC001 02/02 A2996 RMK AO2 T00160016 400161024
Loading
Personal Weather Stations






























Interactive Weather Map New forecast layout! Learn more

10-Day Weather Forecast

Advertisements
Track Severe Weather on mobile